Time;durP1;ratioP1;P1;durP2;ratioP2;P2;SDS_P1;SDS_P2;PMS_P1;PMS_P2;Temp;Humidity;BMP_temperature;BMP_pressure;BME280_temperature;BME280_humidity;BME280_pressure;Samples;Min_cycle;Max_cycle;Signal;HPM_P1;HPM_P2
2024/04/08 00:00:56;;;;;;;2.88;1.35;;;17.60;64.90;;;;;;5094263;28;20020;-69
2024/04/08 00:03:22;;;;;;;6.85;1.58;;;17.60;64.70;;;;;;5093618;28;20431;-70
2024/04/08 00:05:48;;;;;;;4.05;1.55;;;17.60;64.70;;;;;;5093839;28;20128;-70
2024/04/08 00:08:14;;;;;;;5.22;1.50;;;17.60;65.00;;;;;;5093979;28;20365;-71
2024/04/08 00:10:39;;;;;;;4.55;1.30;;;17.50;64.90;;;;;;5093667;28;20089;-71
2024/04/08 00:13:05;;;;;;;5.22;1.17;;;17.50;65.20;;;;;;5092431;28;20017;-69
2024/04/08 00:15:31;;;;;;;4.05;1.20;;;17.50;65.50;;;;;;5093517;28;20026;-70
2024/04/08 00:17:57;;;;;;;2.55;0.93;;;17.40;66.00;;;;;;5093403;28;20030;-70
2024/04/08 00:20:22;;;;;;;2.85;1.10;;;17.40;65.90;;;;;;5093676;28;20058;-70
2024/04/08 00:22:52;;;;;;;3.15;1.20;;;17.40;66.30;;;;;;5093640;28;20020;-71
2024/04/08 00:25:18;;;;;;;2.97;1.20;;;17.40;66.50;;;;;;5093799;28;20456;-70
2024/04/08 00:27:44;;;;;;;3.70;1.15;;;17.40;66.90;;;;;;5092916;28;20028;-70
2024/04/08 00:30:10;;;;;;;4.15;1.27;;;17.40;66.70;;;;;;5092995;28;20038;-70
2024/04/08 00:32:36;;;;;;;3.03;1.10;;;17.30;66.80;;;;;;5093363;28;20020;-69
2024/04/08 00:35:03;;;;;;;4.25;1.23;;;17.30;66.90;;;;;;5093767;28;20132;-70
2024/04/08 00:37:29;;;;;;;2.47;1.10;;;17.40;67.10;;;;;;5093274;28;20020;-69
2024/04/08 00:39:54;;;;;;;3.22;1.30;;;17.40;67.10;;;;;;5093466;28;20035;-70
2024/04/08 00:42:20;;;;;;;3.45;1.35;;;17.40;67.30;;;;;;5092083;28;20055;-70
2024/04/08 00:44:46;;;;;;;4.95;1.33;;;17.30;67.30;;;;;;5091861;28;20101;-71
2024/04/08 00:47:13;;;;;;;3.92;1.75;;;17.30;67.30;;;;;;5091913;28;20056;-70
2024/04/08 00:49:40;;;;;;;3.25;1.27;;;17.30;67.50;;;;;;5093029;28;20039;-71
2024/04/08 00:52:11;;;;;;;5.18;1.67;;;17.30;67.60;;;;;;5093001;28;20399;-71
2024/04/08 00:54:39;;;;;;;6.65;2.08;;;17.20;67.90;;;;;;5093079;28;20028;-70
2024/04/08 00:57:07;;;;;;;5.63;2.38;;;17.20;67.50;;;;;;5093172;28;20027;-71
2024/04/08 00:59:33;;;;;;;5.20;2.45;;;17.20;67.40;;;;;;5092685;28;20027;-71
2024/04/08 01:02:00;;;;;;;10.48;3.33;;;17.20;67.10;;;;;;5092825;28;20435;-71
2024/04/08 01:04:28;;;;;;;8.13;3.72;;;17.20;66.80;;;;;;5092682;28;20028;-71
2024/04/08 01:06:53;;;;;;;8.60;3.20;;;17.20;66.50;;;;;;5012908;28;20087;-72
2024/04/08 01:09:19;;;;;;;7.55;3.58;;;17.10;66.30;;;;;;4990414;28;20397;-71
2024/04/08 01:11:45;;;;;;;7.38;4.18;;;17.10;66.30;;;;;;4990340;28;20083;-70
2024/04/08 01:14:11;;;;;;;10.77;4.90;;;17.10;66.00;;;;;;4990256;28;20088;-71
2024/04/08 01:16:36;;;;;;;14.05;4.82;;;17.00;65.50;;;;;;4990582;28;20029;-71
2024/04/08 01:19:02;;;;;;;11.07;5.20;;;17.00;65.50;;;;;;4990571;28;20434;-71
2024/04/08 01:21:28;;;;;;;12.68;5.20;;;17.00;66.10;;;;;;4990357;28;20021;-70
2024/04/08 01:23:55;;;;;;;12.77;5.68;;;17.00;65.00;;;;;;4990404;28;20550;-71
2024/04/08 01:26:21;;;;;;;10.48;5.35;;;17.00;64.90;;;;;;4990349;28;20027;-70
2024/04/08 01:28:46;;;;;;;12.43;5.30;;;16.90;64.70;;;;;;4990047;28;20045;-70
2024/04/08 01:31:14;;;;;;;13.45;5.63;;;16.90;64.50;;;;;;4990242;28;20014;-70
2024/04/08 01:33:40;;;;;;;10.27;5.70;;;16.80;64.30;;;;;;4990418;28;20018;-70
2024/04/08 01:36:07;;;;;;;12.07;5.90;;;16.80;64.20;;;;;;4990089;28;20026;-71
2024/04/08 01:38:37;;;;;;;11.75;5.93;;;16.70;64.20;;;;;;4990553;28;20034;-71
2024/04/08 01:41:03;;;;;;;14.25;6.35;;;16.70;64.10;;;;;;4988793;28;20018;-71
2024/04/08 01:43:29;;;;;;;12.07;6.18;;;16.60;64.10;;;;;;4989752;28;20038;-72
2024/04/08 01:45:55;;;;;;;14.65;6.65;;;16.60;63.90;;;;;;4990065;28;20068;-71
2024/04/08 01:48:20;;;;;;;10.27;5.95;;;16.50;63.90;;;;;;4990104;28;20094;-71
2024/04/08 01:50:46;;;;;;;9.65;5.75;;;16.50;64.00;;;;;;4989672;28;20022;-71
2024/04/08 01:53:12;;;;;;;11.50;6.00;;;16.40;64.20;;;;;;4989976;28;20443;-70
2024/04/08 01:55:38;;;;;;;12.55;6.03;;;16.30;64.40;;;;;;4989795;28;20027;-71
2024/04/08 01:58:04;;;;;;;10.95;5.30;;;16.30;64.40;;;;;;4989738;28;20040;-71
2024/04/08 02:00:29;;;;;;;10.75;5.45;;;16.20;64.50;;;;;;4989985;28;20027;-70
2024/04/08 02:02:55;;;;;;;9.85;4.90;;;16.20;64.80;;;;;;4989919;28;20056;-72
2024/04/08 02:05:21;;;;;;;9.52;5.15;;;16.10;64.80;;;;;;4990152;28;20030;-71
2024/04/08 02:07:47;;;;;;;10.85;4.97;;;16.10;64.90;;;;;;4990042;28;20023;-70
2024/04/08 02:10:12;;;;;;;11.70;5.28;;;16.10;65.00;;;;;;4988591;28;20030;-71
2024/04/08 02:12:38;;;;;;;9.85;4.95;;;16.00;65.00;;;;;;4989798;28;20034;-72
2024/04/08 02:15:04;;;;;;;13.30;5.00;;;16.00;65.10;;;;;;4989783;28;20022;-71
2024/04/08 02:17:30;;;;;;;10.98;5.15;;;16.00;65.40;;;;;;4989707;28;20101;-70
2024/04/08 02:19:56;;;;;;;14.50;5.47;;;16.00;65.40;;;;;;4989990;28;20054;-70
2024/04/08 02:22:22;;;;;;;10.07;5.32;;;16.00;65.10;;;;;;4989686;28;20042;-71
2024/04/08 02:24:48;;;;;;;9.75;5.20;;;16.00;65.10;;;;;;4989399;28;20046;-71
2024/04/08 02:27:13;;;;;;;11.55;5.63;;;16.00;65.00;;;;;;4989544;28;20034;-71
2024/04/08 02:29:39;;;;;;;8.63;5.00;;;16.00;65.10;;;;;;4989629;28;20030;-71
2024/04/08 02:32:05;;;;;;;9.48;4.82;;;15.90;65.00;;;;;;4989673;28;20033;-71
2024/04/08 02:34:31;;;;;;;10.60;4.80;;;15.90;65.10;;;;;;4989311;28;20018;-70
2024/04/08 02:36:56;;;;;;;10.63;4.70;;;15.90;65.20;;;;;;4989595;28;20038;-70
2024/04/08 02:39:22;;;;;;;10.82;4.72;;;15.90;65.30;;;;;;4989330;28;20026;-71
2024/04/08 02:41:48;;;;;;;11.65;4.90;;;15.90;65.20;;;;;;4989023;28;20057;-72
2024/04/08 02:44:14;;;;;;;10.32;4.70;;;15.90;65.30;;;;;;4989067;28;20515;-70
2024/04/08 02:46:40;;;;;;;9.95;4.80;;;15.90;65.50;;;;;;4989194;28;20338;-72
2024/04/08 02:49:05;;;;;;;10.10;4.82;;;15.90;65.50;;;;;;4989277;28;20022;-71
2024/04/08 02:51:31;;;;;;;8.90;4.80;;;15.90;65.60;;;;;;4989679;28;20038;-71
2024/04/08 02:53:57;;;;;;;13.82;5.05;;;15.90;65.70;;;;;;4991283;28;20023;-71
2024/04/08 02:56:23;;;;;;;8.18;4.53;;;15.90;66.00;;;;;;4991051;28;20086;-71
2024/04/08 02:58:48;;;;;;;11.23;5.30;;;15.90;66.00;;;;;;4992347;28;20022;-71
2024/04/08 03:01:15;;;;;;;10.88;5.15;;;15.90;66.30;;;;;;4992578;28;20546;-70
2024/04/08 03:03:41;;;;;;;8.27;4.57;;;15.90;66.10;;;;;;4992366;28;20029;-71
2024/04/08 03:06:14;;;;;;;11.48;5.43;;;15.90;66.00;;;;;;4992477;28;20030;-71
2024/04/08 03:08:42;;;;;;;9.10;4.18;;;15.90;66.00;;;;;;4992365;28;20512;-72
2024/04/08 03:11:08;;;;;;;12.43;4.90;;;15.80;66.10;;;;;;4992458;28;20027;-71
2024/04/08 03:13:36;;;;;;;8.88;4.65;;;15.80;66.30;;;;;;4992263;28;20105;-71
2024/04/08 03:16:01;;;;;;;10.35;4.80;;;15.80;66.40;;;;;;4992045;28;20474;-73
2024/04/08 03:18:27;;;;;;;9.38;5.28;;;15.80;66.50;;;;;;4992225;28;20034;-71
2024/04/08 03:20:54;;;;;;;11.52;5.20;;;15.80;66.70;;;;;;4992057;28;20033;-70
2024/04/08 03:23:21;;;;;;;9.23;4.45;;;15.80;66.50;;;;;;4992064;28;20131;-71
2024/04/08 03:25:47;;;;;;;9.45;4.70;;;15.80;66.50;;;;;;4992159;28;20035;-71
2024/04/08 03:28:12;;;;;;;10.73;5.25;;;15.80;66.30;;;;;;4992072;28;20033;-70
2024/04/08 03:30:38;;;;;;;9.13;5.20;;;15.80;66.50;;;;;;4992000;28;20034;-71
2024/04/08 03:33:04;;;;;;;11.73;5.00;;;15.80;66.60;;;;;;4992019;28;20022;-71
2024/04/08 03:35:30;;;;;;;9.98;4.57;;;15.80;66.70;;;;;;4991966;28;20065;-70
2024/04/08 03:37:55;;;;;;;10.35;5.40;;;15.70;66.70;;;;;;4991766;28;20015;-70
2024/04/08 03:40:23;;;;;;;11.80;4.95;;;15.70;66.90;;;;;;4991885;28;20026;-70
2024/04/08 03:42:49;;;;;;;10.55;4.60;;;15.70;66.90;;;;;;4991964;28;20067;-70
2024/04/08 03:45:15;;;;;;;9.10;4.57;;;15.70;67.00;;;;;;4991397;28;20153;-70
2024/04/08 03:47:41;;;;;;;8.48;4.43;;;15.70;67.20;;;;;;4991967;28;20105;-71
2024/04/08 03:50:07;;;;;;;10.02;4.75;;;15.70;67.30;;;;;;4991756;28;20470;-71
2024/04/08 03:52:33;;;;;;;11.23;4.35;;;15.60;67.30;;;;;;4991429;28;20023;-70
2024/04/08 03:54:59;;;;;;;9.40;3.95;;;15.60;67.20;;;;;;4991983;28;20034;-71
2024/04/08 03:57:25;;;;;;;9.00;4.78;;;15.70;67.40;;;;;;4991881;28;20474;-71
2024/04/08 03:59:50;;;;;;;7.60;4.38;;;15.60;67.30;;;;;;4991612;28;20031;-71
2024/04/08 04:02:16;;;;;;;10.00;4.97;;;15.60;67.40;;;;;;4991465;28;20101;-70
2024/04/08 04:04:42;;;;;;;10.20;5.07;;;15.60;67.30;;;;;;4991478;28;20030;-71
2024/04/08 04:07:07;;;;;;;10.10;5.40;;;15.60;67.50;;;;;;4991727;28;20524;-72
2024/04/08 04:09:33;;;;;;;10.52;5.45;;;15.60;67.20;;;;;;4991506;28;20037;-71
2024/04/08 04:11:59;;;;;;;10.52;4.97;;;15.70;67.30;;;;;;4991786;28;20113;-71
2024/04/08 04:14:25;;;;;;;9.20;4.70;;;15.70;67.50;;;;;;4991420;28;20038;-71
2024/04/08 04:16:51;;;;;;;11.13;4.78;;;15.70;67.30;;;;;;4991377;28;20022;-71
2024/04/08 04:19:17;;;;;;;10.40;5.03;;;15.70;67.30;;;;;;4991154;28;20455;-72
2024/04/08 04:21:43;;;;;;;9.38;4.43;;;15.70;67.50;;;;;;4991541;28;20042;-71
2024/04/08 04:24:08;;;;;;;10.48;4.50;;;15.70;67.50;;;;;;4991094;28;20034;-72
2024/04/08 04:26:34;;;;;;;10.35;4.72;;;15.70;67.70;;;;;;4991070;28;20105;-71
2024/04/08 04:29:00;;;;;;;7.35;4.10;;;15.60;67.80;;;;;;4990105;28;20022;-71
2024/04/08 04:31:40;;;;;;;9.10;4.35;;;15.50;67.80;;;;;;4991023;28;20030;-71
2024/04/08 04:34:05;;;;;;;10.88;4.82;;;15.60;67.90;;;;;;4991562;28;20070;-71
2024/04/08 04:36:31;;;;;;;13.02;4.45;;;15.50;68.00;;;;;;5019104;22;20457;-71
2024/04/08 04:38:57;;;;;;;8.93;4.55;;;15.50;68.10;;;;;;5013472;28;20029;-72
2024/04/08 04:41:22;;;;;;;15.75;5.32;;;15.50;68.20;;;;;;5013299;28;20014;-72
2024/04/08 04:43:48;;;;;;;10.95;4.95;;;15.50;68.30;;;;;;5012171;28;20026;-71
2024/04/08 04:46:14;;;;;;;16.98;9.05;;;15.50;68.40;;;;;;5013567;28;20101;-69
2024/04/08 04:48:40;;;;;;;9.25;5.90;;;15.60;68.40;;;;;;5013563;28;20033;-70
2024/04/08 04:51:05;;;;;;;10.50;5.15;;;15.60;68.30;;;;;;5013268;28;20402;-71
2024/04/08 04:53:31;;;;;;;11.25;4.55;;;15.60;68.10;;;;;;5013371;28;20022;-70
2024/04/08 04:55:57;;;;;;;16.35;5.82;;;15.70;68.10;;;;;;5013316;28;20026;-72
2024/04/08 04:58:23;;;;;;;14.52;5.93;;;15.70;68.00;;;;;;5013349;28;20032;-71
2024/04/08 05:00:49;;;;;;;7.68;4.40;;;15.80;68.10;;;;;;5011628;28;20074;-69
2024/04/08 05:03:18;;;;;;;13.20;6.78;;;15.80;67.80;;;;;;5012908;28;20022;-71
2024/04/08 05:05:54;;;;;;;9.63;5.15;;;15.90;67.80;;;;;;5013144;28;20057;-73
2024/04/08 05:08:21;;;;;;;17.10;6.90;;;15.90;67.60;;;;;;5013363;28;20018;-72
2024/04/08 05:10:46;;;;;;;10.55;5.00;;;15.90;67.70;;;;;;5013404;28;20032;-71
2024/04/08 05:13:14;;;;;;;9.00;4.80;;;16.00;68.10;;;;;;5013216;28;20097;-71
2024/04/08 05:15:40;;;;;;;11.57;5.38;;;16.10;67.50;;;;;;5012367;28;20029;-73
2024/04/08 05:18:06;;;;;;;12.27;5.40;;;16.10;67.70;;;;;;5013107;28;20041;-72
2024/04/08 05:20:31;;;;;;;9.82;5.05;;;16.10;67.60;;;;;;5013108;28;20089;-72
2024/04/08 05:22:57;;;;;;;15.88;6.68;;;16.20;67.70;;;;;;5012726;28;20525;-71
2024/04/08 05:25:23;;;;;;;13.23;5.63;;;16.20;67.60;;;;;;5012696;28;20117;-72
2024/04/08 05:27:48;;;;;;;11.93;5.63;;;16.30;67.40;;;;;;5012995;28;20041;-73
2024/04/08 05:30:15;;;;;;;10.65;5.47;;;16.40;67.20;;;;;;5012836;28;20030;-71
2024/04/08 05:32:40;;;;;;;11.88;5.13;;;16.50;67.00;;;;;;5011250;28;20029;-68
2024/04/08 05:35:08;;;;;;;23.90;6.40;;;16.60;66.80;;;;;;5012662;28;20050;-70
2024/04/08 05:37:34;;;;;;;15.70;6.50;;;16.70;66.70;;;;;;5012937;28;20026;-71
2024/04/08 05:40:00;;;;;;;16.60;6.60;;;16.80;66.60;;;;;;5012577;28;20072;-70
2024/04/08 05:42:25;;;;;;;9.60;5.25;;;16.90;66.60;;;;;;5012414;28;20101;-66
2024/04/08 05:44:51;;;;;;;30.63;18.55;;;17.10;66.60;;;;;;5012289;28;20350;-70
2024/04/08 05:47:17;;;;;;;16.75;8.48;;;17.10;66.20;;;;;;5012405;28;20026;-67
2024/04/08 05:49:43;;;;;;;13.55;6.13;;;17.30;66.30;;;;;;5012797;28;20026;-68
2024/04/08 05:52:09;;;;;;;14.18;6.05;;;17.50;65.50;;;;;;5012533;28;20018;-69
2024/04/08 05:54:35;;;;;;;14.15;5.68;;;17.80;65.40;;;;;;5012429;28;20109;-69
2024/04/08 05:57:01;;;;;;;15.63;6.05;;;17.80;64.90;;;;;;5012318;28;20120;-67
2024/04/08 05:59:28;;;;;;;13.52;5.70;;;17.90;64.80;;;;;;5012126;28;20041;-70
2024/04/08 06:01:54;;;;;;;17.00;6.63;;;18.00;64.60;;;;;;5012267;28;20393;-70
2024/04/08 06:04:19;;;;;;;23.83;6.88;;;18.20;64.50;;;;;;5012254;28;20053;-69
2024/04/08 06:06:46;;;;;;;20.77;8.10;;;18.50;64.10;;;;;;5012360;28;20426;-72
2024/04/08 06:09:12;;;;;;;25.55;15.23;;;19.30;63.50;;;;;;5012460;28;20026;-73
2024/04/08 06:11:37;;;;;;;17.55;7.22;;;20.00;61.70;;;;;;5010684;28;20022;-72
2024/04/08 06:14:03;;;;;;;14.40;6.18;;;20.70;59.90;;;;;;5010930;28;20077;-70
2024/04/08 06:16:29;;;;;;;16.00;6.70;;;21.20;58.70;;;;;;5012231;28;20030;-69
2024/04/08 06:18:54;;;;;;;19.13;6.97;;;21.70;58.40;;;;;;5012100;28;20459;-69
2024/04/08 06:21:20;;;;;;;24.13;6.70;;;21.80;57.90;;;;;;5012178;28;20133;-69
2024/04/08 06:23:46;;;;;;;19.20;7.15;;;21.90;57.70;;;;;;5011894;28;20034;-71
2024/04/08 06:26:12;;;;;;;31.10;9.88;;;21.70;57.60;;;;;;5012143;28;20018;-70
2024/04/08 06:28:37;;;;;;;18.27;7.53;;;21.60;57.60;;;;;;5015929;28;20069;-70
2024/04/08 06:31:03;;;;;;;24.77;6.68;;;21.30;57.70;;;;;;5014337;28;20150;-70
2024/04/08 06:33:29;;;;;;;25.80;7.15;;;21.10;58.30;;;;;;5015599;28;20036;-70
2024/04/08 06:35:55;;;;;;;15.85;6.80;;;21.20;58.40;;;;;;5015543;28;20133;-70
2024/04/08 06:38:21;;;;;;;23.55;7.65;;;21.50;58.10;;;;;;5015551;28;20030;-69
2024/04/08 06:40:46;;;;;;;19.92;7.15;;;21.90;57.60;;;;;;5015681;28;20026;-68
2024/04/08 06:43:12;;;;;;;23.27;8.02;;;22.20;57.10;;;;;;5015511;28;20041;-69
2024/04/08 06:45:38;;;;;;;13.25;6.90;;;22.20;56.70;;;;;;5015411;28;20119;-71
2024/04/08 06:48:04;;;;;;;19.23;5.80;;;22.50;56.30;;;;;;5015280;28;20033;-71
2024/04/08 06:50:30;;;;;;;16.40;6.25;;;23.00;55.90;;;;;;5015237;28;20080;-70
2024/04/08 06:52:55;;;;;;;14.20;5.13;;;23.40;55.50;;;;;;5015380;28;20030;-70
2024/04/08 06:55:23;;;;;;;13.65;5.65;;;23.90;54.70;;;;;;5015300;28;20526;-68
2024/04/08 06:57:49;;;;;;;10.63;5.15;;;24.80;54.10;;;;;;5015308;28;20482;-69
2024/04/08 07:00:16;;;;;;;13.32;5.88;;;25.20;53.00;;;;;;5015442;28;20024;-71
2024/04/08 07:02:42;;;;;;;19.02;6.28;;;25.40;52.50;;;;;;5015387;28;20109;-70
2024/04/08 07:05:08;;;;;;;13.15;6.03;;;25.80;52.50;;;;;;5015081;28;20153;-71
2024/04/08 07:07:34;;;;;;;16.60;5.70;;;25.90;52.10;;;;;;5015084;28;20084;-70
2024/04/08 07:09:59;;;;;;;11.45;5.68;;;26.10;51.90;;;;;;5015223;28;20108;-70
2024/04/08 07:12:25;;;;;;;13.55;5.28;;;26.60;51.20;;;;;;5015174;28;20033;-71
2024/04/08 07:14:52;;;;;;;13.45;5.63;;;26.60;50.80;;;;;;5014931;28;20420;-70
2024/04/08 07:17:19;;;;;;;13.77;5.38;;;26.20;51.60;;;;;;5008094;28;20041;-71
2024/04/08 07:19:45;;;;;;;13.60;5.55;;;26.00;51.50;;;;;;5015259;28;20087;-69
2024/04/08 07:22:10;;;;;;;16.55;6.15;;;25.80;51.50;;;;;;5013874;28;20541;-70
2024/04/08 07:24:36;;;;;;;22.83;6.55;;;25.70;51.70;;;;;;5031543;28;20064;-69
2024/04/08 07:27:05;;;;;;;18.17;5.90;;;25.70;51.30;;;;;;5028114;28;20029;-70
2024/04/08 07:29:31;;;;;;;17.35;6.15;;;25.80;51.30;;;;;;5014312;28;20211;-71
2024/04/08 07:31:57;;;;;;;11.48;5.75;;;25.50;51.40;;;;;;5013891;28;20018;-71
2024/04/08 07:34:23;;;;;;;10.63;5.07;;;24.70;52.10;;;;;;4996787;28;20093;-70
2024/04/08 07:36:49;;;;;;;12.93;5.88;;;24.00;52.90;;;;;;5013782;28;20130;-70
2024/04/08 07:39:14;;;;;;;11.18;5.30;;;23.50;53.70;;;;;;5013894;28;20011;-71
2024/04/08 07:41:40;;;;;;;12.45;5.28;;;23.10;54.00;;;;;;5011300;28;20389;-71
2024/04/08 07:44:07;;;;;;;12.65;5.78;;;22.70;54.50;;;;;;5011758;28;20016;-70
2024/04/08 07:46:32;;;;;;;12.77;4.90;;;22.40;55.00;;;;;;5014658;28;20394;-70
2024/04/08 07:48:58;;;;;;;10.45;5.07;;;22.30;55.10;;;;;;5014386;28;20034;-71
2024/04/08 07:51:24;;;;;;;17.17;5.95;;;22.10;55.40;;;;;;5014102;28;20018;-70
2024/04/08 07:53:50;;;;;;;15.43;5.80;;;22.00;55.60;;;;;;5014132;28;20033;-68
2024/04/08 07:56:16;;;;;;;14.90;5.78;;;22.00;55.90;;;;;;5013259;28;20018;-70
2024/04/08 07:58:42;;;;;;;12.73;5.60;;;21.90;56.10;;;;;;5011339;28;20489;-69
2024/04/08 08:01:08;;;;;;;18.15;5.60;;;21.80;56.10;;;;;;5012809;28;20018;-71
2024/04/08 08:03:34;;;;;;;10.50;5.72;;;21.90;56.30;;;;;;5013678;28;20030;-70
2024/04/08 08:06:00;;;;;;;15.00;6.80;;;21.80;56.40;;;;;;5013786;28;20371;-71
2024/04/08 08:08:26;;;;;;;11.82;6.45;;;21.70;56.40;;;;;;5013961;28;20097;-70
2024/04/08 08:10:52;;;;;;;12.77;5.88;;;21.60;56.80;;;;;;5013639;28;20104;-70
2024/04/08 08:13:18;;;;;;;9.88;5.60;;;21.60;57.00;;;;;;5013568;28;20058;-71
2024/04/08 08:15:55;;;;;;;14.70;6.20;;;21.40;57.20;;;;;;5013830;28;20520;-71
2024/04/08 08:18:21;;;;;;;12.25;5.93;;;21.30;57.40;;;;;;5013516;28;20463;-69
2024/04/08 08:20:47;;;;;;;12.45;6.40;;;21.20;57.80;;;;;;5013483;28;20033;-71
2024/04/08 08:23:13;;;;;;;13.65;6.07;;;21.20;58.00;;;;;;5013220;28;20040;-72
2024/04/08 08:25:39;;;;;;;14.05;6.07;;;21.30;58.00;;;;;;5013649;28;20034;-70
2024/04/08 08:28:05;;;;;;;16.02;6.97;;;21.20;58.00;;;;;;5013265;28;20129;-69
2024/04/08 08:30:38;;;;;;;15.18;6.50;;;21.30;58.40;;;;;;5013653;28;20549;-73
2024/04/08 08:33:04;;;;;;;22.20;7.83;;;21.40;58.20;;;;;;5014202;28;20022;-71
2024/04/08 08:35:33;;;;;;;11.27;6.35;;;21.40;58.40;;;;;;5013488;28;20285;-70
2024/04/08 08:37:59;;;;;;;17.70;7.45;;;21.40;58.70;;;;;;5013465;28;20133;-69
2024/04/08 08:40:25;;;;;;;18.58;8.07;;;21.50;58.60;;;;;;5013525;28;20179;-68
2024/04/08 08:42:54;;;;;;;13.63;8.40;;;21.50;58.40;;;;;;5013264;28;20064;-68
2024/04/08 08:45:19;;;;;;;18.77;8.20;;;21.60;58.70;;;;;;5013326;28;20086;-69
2024/04/08 08:47:45;;;;;;;25.20;11.25;;;21.60;58.70;;;;;;5013404;28;20427;-70
2024/04/08 08:50:12;;;;;;;19.05;10.40;;;21.70;58.80;;;;;;5011260;28;20029;-68
2024/04/08 08:52:38;;;;;;;24.30;11.45;;;21.70;58.80;;;;;;5012227;28;20029;-71
2024/04/08 08:55:05;;;;;;;22.38;11.52;;;21.80;59.10;;;;;;5013572;28;20034;-70
2024/04/08 08:57:32;;;;;;;24.10;12.38;;;21.90;58.90;;;;;;5013268;28;20382;-69
2024/04/08 09:00:00;;;;;;;30.65;15.93;;;21.90;59.20;;;;;;5013345;28;20030;-69
2024/04/08 09:02:26;;;;;;;23.55;14.63;;;21.90;59.50;;;;;;5013000;28;20040;-70
2024/04/08 09:04:52;;;;;;;25.48;13.77;;;22.00;59.90;;;;;;5012650;28;20490;-68
2024/04/08 09:07:18;;;;;;;27.05;15.05;;;22.00;60.20;;;;;;5011972;28;20014;-69
2024/04/08 09:09:55;;;;;;;23.45;14.48;;;22.00;60.20;;;;;;5012869;28;20030;-68
2024/04/08 09:12:21;;;;;;;24.67;13.90;;;22.10;60.30;;;;;;5012942;28;20105;-70
2024/04/08 09:14:53;;;;;;;22.70;14.75;;;22.20;60.60;;;;;;5013063;28;20061;-69
2024/04/08 09:17:20;;;;;;;26.05;15.10;;;22.30;60.90;;;;;;5012777;28;20050;-68
2024/04/08 09:19:47;;;;;;;20.30;14.90;;;22.30;61.00;;;;;;5013103;28;20393;-69
2024/04/08 09:22:13;;;;;;;29.52;15.60;;;22.30;60.90;;;;;;5013039;28;20033;-69
2024/04/08 09:24:42;;;;;;;24.70;16.55;;;22.40;61.20;;;;;;5013041;28;20080;-69
2024/04/08 09:27:09;;;;;;;20.73;14.85;;;22.50;61.30;;;;;;5011130;28;20505;-69
2024/04/08 09:29:34;;;;;;;23.60;15.38;;;22.50;61.40;;;;;;5012829;28;20026;-69
2024/04/08 09:32:00;;;;;;;28.10;15.85;;;22.60;61.30;;;;;;5012524;28;20018;-70
2024/04/08 09:34:29;;;;;;;25.60;15.60;;;22.70;61.60;;;;;;5012618;28;20113;-69
2024/04/08 09:36:55;;;;;;;24.83;16.52;;;22.70;61.60;;;;;;5012343;28;20053;-70
2024/04/08 09:39:22;;;;;;;28.63;15.45;;;22.70;61.70;;;;;;5013004;28;20038;-69
2024/04/08 09:41:49;;;;;;;30.45;15.55;;;22.80;61.90;;;;;;5013160;28;20451;-70
2024/04/08 09:44:17;;;;;;;23.23;14.30;;;22.90;62.20;;;;;;5012726;28;20026;-69
2024/04/08 09:46:45;;;;;;;27.05;14.65;;;23.00;62.70;;;;;;5012263;28;20104;-69
2024/04/08 09:49:11;;;;;;;23.40;14.55;;;23.00;62.20;;;;;;5012572;28;20019;-68
2024/04/08 09:51:40;;;;;;;21.00;13.52;;;23.10;62.60;;;;;;5012800;28;20026;-67
2024/04/08 09:54:08;;;;;;;22.88;13.60;;;23.10;62.60;;;;;;5012822;28;20037;-72
2024/04/08 09:56:36;;;;;;;27.85;13.48;;;23.20;62.60;;;;;;5012714;28;20041;-69
2024/04/08 09:59:08;;;;;;;23.85;13.02;;;23.30;62.70;;;;;;5012425;28;20070;-69
2024/04/08 10:01:37;;;;;;;27.27;13.02;;;23.40;62.20;;;;;;5014828;28;20041;-68
2024/04/08 10:04:10;;;;;;;23.73;13.50;;;23.50;62.50;;;;;;5016521;28;20026;-69
2024/04/08 10:06:36;;;;;;;;;;;23.60;62.10;;;;;;5017004;28;20025;-70
2024/04/08 10:09:02;;;;;;;20.10;9.57;;;23.70;61.60;;;;;;5015030;28;20277;-69
2024/04/08 10:11:28;;;;;;;22.80;8.48;;;23.80;61.20;;;;;;5016360;28;20029;-68
2024/04/08 10:13:54;;;;;;;22.75;9.15;;;23.90;60.70;;;;;;5016451;28;20033;-71
2024/04/08 10:16:20;;;;;;;13.88;6.00;;;24.00;60.40;;;;;;5015187;28;20326;-71
2024/04/08 10:18:52;;;;;;;11.38;6.07;;;24.20;60.20;;;;;;5016254;28;20100;-70
2024/04/08 10:21:19;;;;;;;14.25;5.40;;;24.30;59.90;;;;;;5016452;28;20111;-72
2024/04/08 10:23:45;;;;;;;11.90;5.22;;;24.40;59.50;;;;;;5015986;28;20042;-72
2024/04/08 10:26:13;;;;;;;11.73;5.78;;;24.50;59.20;;;;;;5014633;28;20026;-71
2024/04/08 10:28:41;;;;;;;14.10;6.30;;;24.60;59.30;;;;;;5015886;28;20026;-70
2024/04/08 10:31:06;;;;;;;14.02;5.32;;;24.70;59.00;;;;;;5015775;28;20048;-71
2024/04/08 10:33:32;;;;;;;12.50;6.20;;;24.70;58.80;;;;;;5014486;28;20454;-71
2024/04/08 10:35:58;;;;;;;11.90;5.03;;;24.80;59.00;;;;;;5015224;28;20442;-71
2024/04/08 10:38:24;;;;;;;11.95;5.18;;;24.80;58.50;;;;;;5015744;28;20037;-70
2024/04/08 10:40:50;;;;;;;9.82;4.78;;;24.80;58.10;;;;;;5015282;28;20033;-71
2024/04/08 10:43:16;;;;;;;13.32;4.68;;;24.80;57.90;;;;;;5015463;28;20398;-70
2024/04/08 10:45:42;;;;;;;8.55;4.60;;;24.80;57.60;;;;;;5015469;28;20033;-69
2024/04/08 10:48:15;;;;;;;7.13;3.80;;;24.80;58.10;;;;;;5015538;28;20128;-70
2024/04/08 10:50:42;;;;;;;11.32;4.85;;;24.80;57.30;;;;;;5015617;28;20030;-70
2024/04/08 10:53:08;;;;;;;16.50;6.25;;;24.80;57.00;;;;;;5015318;28;20057;-70
2024/04/08 10:55:34;;;;;;;9.80;6.53;;;24.90;57.30;;;;;;5015184;28;20454;-69
2024/04/08 10:58:00;;;;;;;15.73;5.50;;;24.90;57.60;;;;;;5015422;28;20021;-67
2024/04/08 11:00:27;;;;;;;10.30;4.88;;;24.90;57.40;;;;;;5015331;28;20022;-69
2024/04/08 11:02:53;;;;;;;13.07;4.30;;;25.00;57.00;;;;;;5015265;28;20382;-70
2024/04/08 11:05:20;;;;;;;10.25;4.53;;;25.00;56.80;;;;;;5015202;28;20034;-71
2024/04/08 11:07:45;;;;;;;7.90;4.13;;;25.10;56.70;;;;;;5015260;28;20045;-69
2024/04/08 11:10:14;;;;;;;12.30;3.40;;;25.10;56.50;;;;;;5015313;28;20026;-73
2024/04/08 11:12:40;;;;;;;7.80;3.47;;;25.10;56.60;;;;;;5014389;28;20018;-72
2024/04/08 11:15:07;;;;;;;9.98;3.20;;;25.20;56.30;;;;;;5014930;28;20022;-72
2024/04/08 11:17:33;;;;;;;9.95;3.50;;;25.20;55.70;;;;;;5015070;28;20037;-69
2024/04/08 11:20:00;;;;;;;7.85;3.70;;;25.30;55.90;;;;;;5014782;28;20029;-69
2024/04/08 11:22:26;;;;;;;9.63;4.10;;;25.30;56.00;;;;;;5014901;28;20030;-71
2024/04/08 11:24:54;;;;;;;10.80;3.70;;;25.40;56.60;;;;;;5014856;28;20038;-72
2024/04/08 11:27:23;;;;;;;13.30;3.50;;;25.50;56.30;;;;;;5013119;28;20029;-72
2024/04/08 11:29:49;;;;;;;9.15;3.83;;;25.50;55.90;;;;;;5011287;28;20026;-73
2024/04/08 11:32:16;;;;;;;12.13;3.25;;;25.60;57.10;;;;;;5014360;28;20037;-70
2024/04/08 11:34:43;;;;;;;8.70;4.45;;;25.60;56.30;;;;;;5014575;28;20018;-70
2024/04/08 11:37:09;;;;;;;11.43;3.70;;;25.70;55.50;;;;;;5014513;28;20490;-71
2024/04/08 11:39:36;;;;;;;7.63;3.53;;;25.80;55.80;;;;;;5014877;28;20338;-71
2024/04/08 11:42:02;;;;;;;12.55;4.20;;;25.80;55.60;;;;;;5014783;28;20030;-72
2024/04/08 11:44:32;;;;;;;8.27;3.55;;;25.90;55.70;;;;;;5014276;28;20062;-71
2024/04/08 11:46:58;;;;;;;11.07;3.45;;;26.00;55.10;;;;;;5014409;28;20060;-70
2024/04/08 11:49:24;;;;;;;16.55;4.18;;;26.10;54.50;;;;;;5014399;28;20157;-71
2024/04/08 11:51:49;;;;;;;14.60;4.38;;;26.10;54.20;;;;;;5013086;28;20139;-75
2024/04/08 11:54:16;;;;;;;23.45;4.68;;;26.10;54.20;;;;;;5014239;28;20454;-69
2024/04/08 11:56:42;;;;;;;10.15;3.80;;;26.20;54.90;;;;;;5014049;28;20038;-70
2024/04/08 11:59:08;;;;;;;9.15;3.63;;;26.30;54.40;;;;;;5013818;28;20113;-70
2024/04/08 12:01:36;;;;;;;7.45;3.53;;;26.30;54.40;;;;;;5012865;28;20106;-70
2024/04/08 12:04:03;;;;;;;10.23;3.72;;;26.40;54.60;;;;;;5013896;28;20385;-69
2024/04/08 12:06:29;;;;;;;8.65;4.00;;;26.50;54.40;;;;;;5013867;28;20026;-69
2024/04/08 12:08:56;;;;;;;7.82;3.60;;;26.50;54.00;;;;;;5012565;28;20056;-70
2024/04/08 12:11:22;;;;;;;10.00;3.83;;;26.60;53.80;;;;;;5013647;28;20504;-70
2024/04/08 12:13:48;;;;;;;7.00;3.40;;;26.60;54.10;;;;;;5013589;28;20148;-70
2024/04/08 12:16:14;;;;;;;9.23;3.22;;;26.60;54.10;;;;;;5013777;28;20100;-69
2024/04/08 12:18:40;;;;;;;6.57;4.03;;;26.70;54.10;;;;;;5013794;28;20161;-70
2024/04/08 12:21:05;;;;;;;9.23;3.97;;;26.80;54.60;;;;;;5013478;28;20100;-71
2024/04/08 12:23:31;;;;;;;7.25;3.15;;;26.80;54.80;;;;;;5013097;28;20464;-71
2024/04/08 12:25:57;;;;;;;10.65;3.83;;;26.80;54.90;;;;;;5012936;28;20044;-69
2024/04/08 12:28:23;;;;;;;13.30;3.50;;;26.80;54.90;;;;;;5013485;28;20028;-69
2024/04/08 12:30:48;;;;;;;7.30;3.50;;;26.90;55.40;;;;;;5013614;28;20149;-69
2024/04/08 12:33:14;;;;;;;13.77;3.75;;;26.90;55.50;;;;;;5011992;28;20057;-69